Berriatua, Spain
Current Conditions -  °F | °C
As of 9:30 AM on Saturday 22 Nov 2014 (Local Time) from LEBB Reporting Station
Few Clouds Few Clouds  
Wind Chill: 61°   Ceiling: Unl
Heat Index: 61°   Visibility: 6mi
Dew Point: 55°   Wind: 13mph
Humidity: 82%   Direction: 110°ESE
Pressure: 29.94"   Gusts: NA
Location:  43.32°N, 2.47°W
Report Text: LEBB 220830Z 11011KT 9999 FEW050 16/13 Q1014 NOSIG
Loading
Personal Weather Stations






























Interactive Weather Map New forecast layout! Learn more

10-Day Weather Forecast

Advertisements
Track Severe Weather on mobile